CFG2254 EDDF-TTCP
Flight info
| Callsign | CFG2254 |
|---|---|
| Flight time | N/A |
| Altitude | 40000 |
| Route | ULKIG4S SOBRA Y180 DIK UN857 TOLVU DCT RAPOR DCT GIMER DCT ESTOC UT300 PON UN872 DIDAK DCT AKEMO DCT TIVLU/M082F360 UN536 BUNAV DCT PASAS DCT 40N020W 33N030W 27N040W 21N050W DCT HIGNZ/N0481F360 DCT BGI R515 LOGAN |
| Aircraft | A339/H-SADE1E2E3GHIJ3J5M1P2RWXY/LB2D1 |
Departure
| Time | N/A |
|---|---|
| Airport | Frankfurt Main Airport (EDDF) |
Arrival
| Time | 2026-04-26 20:54 |
|---|---|
| Airport | A.N.R. Robinson International Airport (TTCP) |
| Time | Latitude | Longitude | Altitude | Speed | Heading |
|---|---|---|---|---|---|
| 2026-04-26 20:15 | 13.96486 | -58.52213 | 39985 ft | 447 kts | 228° |
| 2026-04-26 20:15 | 13.92204 | -58.56866 | 39989 ft | 447 kts | 228° |
| 2026-04-26 20:16 | 13.87917 | -58.61523 | 39992 ft | 448 kts | 228° |
| 2026-04-26 20:16 | 13.83651 | -58.66153 | 39996 ft | 448 kts | 228° |
| 2026-04-26 20:17 | 13.79354 | -58.70815 | 39996 ft | 448 kts | 228° |
| 2026-04-26 20:17 | 13.75060 | -58.75471 | 39991 ft | 448 kts | 228° |
| 2026-04-26 20:18 | 13.70758 | -58.80134 | 39986 ft | 449 kts | 227° |
| 2026-04-26 20:18 | 13.66484 | -58.84763 | 39988 ft | 449 kts | 227° |
| 2026-04-26 20:19 | 13.62181 | -58.89420 | 39992 ft | 449 kts | 227° |
| 2026-04-26 20:19 | 13.57874 | -58.94079 | 39990 ft | 449 kts | 227° |
| 2026-04-26 20:20 | 13.53572 | -58.98731 | 39989 ft | 449 kts | 227° |
| 2026-04-26 20:20 | 13.49267 | -59.03383 | 39984 ft | 449 kts | 227° |
| 2026-04-26 20:21 | 13.44954 | -59.08044 | 39982 ft | 449 kts | 227° |
| 2026-04-26 20:21 | 13.40669 | -59.12669 | 39983 ft | 450 kts | 227° |
| 2026-04-26 20:22 | 13.36355 | -59.17322 | 39986 ft | 450 kts | 227° |
| 2026-04-26 20:22 | 13.32036 | -59.21978 | 39979 ft | 450 kts | 227° |
| 2026-04-26 20:23 | 13.27722 | -59.26627 | 39976 ft | 450 kts | 227° |
| 2026-04-26 20:23 | 13.23406 | -59.31277 | 39974 ft | 450 kts | 227° |
| 2026-04-26 20:24 | 13.19087 | -59.35929 | 39970 ft | 450 kts | 227° |
| 2026-04-26 20:24 | 13.14786 | -59.40557 | 39966 ft | 450 kts | 227° |
| 2026-04-26 20:25 | 13.10454 | -59.45214 | 39963 ft | 450 kts | 227° |
| 2026-04-26 20:25 | 13.05795 | -59.49518 | 39964 ft | 451 kts | 219° |
| 2026-04-26 20:26 | 13.00645 | -59.53225 | 39966 ft | 452 kts | 216° |
| 2026-04-26 20:26 | 12.95459 | -59.56879 | 39969 ft | 452 kts | 216° |
| 2026-04-26 20:27 | 12.90276 | -59.60544 | 39973 ft | 452 kts | 216° |
| 2026-04-26 20:27 | 12.85091 | -59.64203 | 39972 ft | 452 kts | 216° |
| 2026-04-26 20:28 | 12.80261 | -59.67607 | 39975 ft | 452 kts | 216° |
| 2026-04-26 20:29 | 12.78248 | -59.69026 | 39822 ft | 452 kts | 215° |
| 2026-04-26 20:30 | 12.75680 | -59.70834 | 39961 ft | 444 kts | 216° |
| 2026-04-26 20:30 | 12.70570 | -59.74433 | 39977 ft | 451 kts | 216° |
| 2026-04-26 20:31 | 12.65377 | -59.78090 | 39974 ft | 452 kts | 216° |
| 2026-04-26 20:31 | 12.60200 | -59.81731 | 39620 ft | 450 kts | 215° |
| 2026-04-26 20:31 | 12.57614 | -59.83550 | 38924 ft | 453 kts | 215° |
| 2026-04-26 20:32 | 12.54999 | -59.85390 | 37811 ft | 460 kts | 215° |
| 2026-04-26 20:32 | 12.52337 | -59.87262 | 36446 ft | 468 kts | 215° |
| 2026-04-26 20:32 | 12.49627 | -59.89165 | 35141 ft | 475 kts | 216° |
| 2026-04-26 20:32 | 12.46896 | -59.91083 | 33901 ft | 479 kts | 216° |
| 2026-04-26 20:33 | 12.44171 | -59.92998 | 32470 ft | 483 kts | 216° |
| 2026-04-26 20:33 | 12.41394 | -59.94949 | 31142 ft | 485 kts | 215° |
| 2026-04-26 20:33 | 12.38623 | -59.96895 | 30236 ft | 480 kts | 215° |
| 2026-04-26 20:33 | 12.35891 | -59.98812 | 29538 ft | 472 kts | 215° |
| 2026-04-26 20:34 | 12.33211 | -60.00692 | 29090 ft | 461 kts | 215° |
| 2026-04-26 20:34 | 12.30603 | -60.02521 | 28706 ft | 449 kts | 215° |
| 2026-04-26 20:34 | 12.28044 | -60.04316 | 28119 ft | 443 kts | 214° |
| 2026-04-26 20:34 | 12.25512 | -60.06092 | 27546 ft | 438 kts | 214° |
| 2026-04-26 20:35 | 12.23013 | -60.07845 | 26985 ft | 432 kts | 214° |
| 2026-04-26 20:35 | 12.20548 | -60.09572 | 26414 ft | 427 kts | 214° |
| 2026-04-26 20:35 | 12.18112 | -60.11280 | 25828 ft | 423 kts | 214° |
| 2026-04-26 20:35 | 12.15692 | -60.12975 | 25290 ft | 418 kts | 214° |
| 2026-04-26 20:36 | 12.13372 | -60.14694 | 24778 ft | 413 kts | 218° |
| 2026-04-26 20:36 | 12.11209 | -60.16624 | 24224 ft | 410 kts | 221° |
| 2026-04-26 20:36 | 12.09089 | -60.18556 | 23671 ft | 406 kts | 220° |
| 2026-04-26 20:36 | 12.06989 | -60.20460 | 23041 ft | 402 kts | 220° |
| 2026-04-26 20:37 | 12.04913 | -60.22335 | 22582 ft | 394 kts | 220° |
| 2026-04-26 20:37 | 12.02880 | -60.24169 | 22066 ft | 387 kts | 220° |
| 2026-04-26 20:37 | 12.00873 | -60.25979 | 21544 ft | 383 kts | 220° |
| 2026-04-26 20:37 | 11.98815 | -60.27832 | 21026 ft | 406 kts | 220° |
| 2026-04-26 20:38 | 11.96687 | -60.29747 | 20491 ft | 416 kts | 220° |
| 2026-04-26 20:38 | 11.94512 | -60.31708 | 19870 ft | 419 kts | 220° |
| 2026-04-26 20:38 | 11.92329 | -60.33676 | 19299 ft | 415 kts | 220° |
| 2026-04-26 20:38 | 11.90172 | -60.35621 | 18752 ft | 408 kts | 220° |
| 2026-04-26 20:39 | 11.88063 | -60.37523 | 18199 ft | 399 kts | 220° |
| 2026-04-26 20:39 | 11.86692 | -60.38759 | 17767 ft | 394 kts | 220° |
| 2026-04-26 20:39 | 11.83994 | -60.41190 | 17085 ft | 380 kts | 219° |
| 2026-04-26 20:39 | 11.82035 | -60.42955 | 16551 ft | 371 kts | 219° |
| 2026-04-26 20:40 | 11.80145 | -60.44657 | 16048 ft | 363 kts | 219° |
| 2026-04-26 20:40 | 11.78263 | -60.46350 | 15544 ft | 356 kts | 219° |
| 2026-04-26 20:40 | 11.76422 | -60.48008 | 15051 ft | 351 kts | 219° |
| 2026-04-26 20:40 | 11.74536 | -60.49699 | 14537 ft | 372 kts | 219° |
| 2026-04-26 20:41 | 11.72560 | -60.51471 | 14165 ft | 380 kts | 219° |
| 2026-04-26 20:41 | 11.70564 | -60.53265 | 13499 ft | 384 kts | 219° |
| 2026-04-26 20:41 | 11.68553 | -60.55074 | 12830 ft | 382 kts | 219° |
| 2026-04-26 20:41 | 11.66599 | -60.56835 | 12349 ft | 369 kts | 219° |
| 2026-04-26 20:42 | 11.64702 | -60.58543 | 11834 ft | 359 kts | 219° |
| 2026-04-26 20:42 | 11.62852 | -60.60207 | 11333 ft | 349 kts | 219° |
| 2026-04-26 20:42 | 11.61052 | -60.61825 | 10843 ft | 340 kts | 219° |
| 2026-04-26 20:42 | 11.59299 | -60.63401 | 10459 ft | 329 kts | 218° |
| 2026-04-26 20:43 | 11.57651 | -60.64882 | 10292 ft | 310 kts | 218° |
| 2026-04-26 20:43 | 11.56070 | -60.66303 | 9926 ft | 300 kts | 218° |
| 2026-04-26 20:43 | 11.54513 | -60.67699 | 9435 ft | 295 kts | 218° |
| 2026-04-26 20:43 | 11.53000 | -60.69057 | 9217 ft | 288 kts | 218° |
| 2026-04-26 20:44 | 11.51476 | -60.70420 | 9092 ft | 292 kts | 218° |
| 2026-04-26 20:44 | 11.49953 | -60.71783 | 8969 ft | 291 kts | 218° |
| 2026-04-26 20:44 | 11.48438 | -60.73143 | 8842 ft | 290 kts | 218° |
| 2026-04-26 20:44 | 11.46925 | -60.74503 | 8608 ft | 290 kts | 218° |
| 2026-04-26 20:45 | 11.45409 | -60.75858 | 8231 ft | 288 kts | 219° |
| 2026-04-26 20:45 | 11.43921 | -60.77191 | 7860 ft | 280 kts | 219° |
| 2026-04-26 20:45 | 11.42486 | -60.78480 | 7490 ft | 270 kts | 219° |
| 2026-04-26 20:45 | 11.41103 | -60.79723 | 7146 ft | 260 kts | 219° |
| 2026-04-26 20:46 | 11.39734 | -60.80950 | 6831 ft | 274 kts | 219° |
| 2026-04-26 20:46 | 11.38232 | -60.82284 | 6698 ft | 295 kts | 219° |
| 2026-04-26 20:46 | 11.36691 | -60.83661 | 6656 ft | 291 kts | 219° |
| 2026-04-26 20:46 | 11.35189 | -60.85011 | 6423 ft | 285 kts | 219° |
| 2026-04-26 20:47 | 11.33727 | -60.86326 | 5862 ft | 285 kts | 219° |
| 2026-04-26 20:47 | 11.32726 | -60.87222 | 5469 ft | 282 kts | 219° |
| 2026-04-26 20:47 | 11.30773 | -60.88970 | 4652 ft | 280 kts | 219° |
| 2026-04-26 20:47 | 11.29317 | -60.90276 | 4157 ft | 274 kts | 219° |
| 2026-04-26 20:48 | 11.27934 | -60.91520 | 3961 ft | 256 kts | 219° |
| 2026-04-26 20:48 | 11.26635 | -60.92687 | 3820 ft | 241 kts | 219° |
| 2026-04-26 20:48 | 11.25408 | -60.93789 | 3648 ft | 231 kts | 218° |
| 2026-04-26 20:48 | 11.24218 | -60.94851 | 3486 ft | 220 kts | 218° |
| 2026-04-26 20:49 | 11.23101 | -60.95853 | 3375 ft | 207 kts | 218° |
| 2026-04-26 20:49 | 11.22048 | -60.96797 | 3210 ft | 198 kts | 218° |
| 2026-04-26 20:49 | 11.21033 | -60.97702 | 2955 ft | 195 kts | 218° |
| 2026-04-26 20:49 | 11.20018 | -60.98615 | 2674 ft | 192 kts | 217° |
| 2026-04-26 20:50 | 11.19009 | -60.99397 | 2555 ft | 173 kts | 201° |
| 2026-04-26 20:50 | 11.17896 | -60.99615 | 2316 ft | 156 kts | 169° |
| 2026-04-26 20:50 | 11.16915 | -60.99254 | 2065 ft | 148 kts | 141° |
| 2026-04-26 20:50 | 11.16244 | -60.98463 | 2104 ft | 155 kts | 116° |
| 2026-04-26 20:51 | 11.15960 | -60.97408 | 2014 ft | 151 kts | 97° |
| 2026-04-26 20:51 | 11.15916 | -60.96335 | 1948 ft | 155 kts | 92° |
| 2026-04-26 20:51 | 11.15840 | -60.95260 | 1880 ft | 147 kts | 95° |
| 2026-04-26 20:51 | 11.15767 | -60.94213 | 1824 ft | 154 kts | 94° |
| 2026-04-26 20:52 | 11.15687 | -60.93113 | 1644 ft | 154 kts | 96° |
| 2026-04-26 20:52 | 11.15606 | -60.92037 | 1447 ft | 151 kts | 95° |
| 2026-04-26 20:52 | 11.15529 | -60.90971 | 1276 ft | 154 kts | 94° |
| 2026-04-26 20:52 | 11.15453 | -60.89935 | 1091 ft | 140 kts | 95° |
| 2026-04-26 20:53 | 11.15382 | -60.88964 | 912 ft | 134 kts | 94° |
| 2026-04-26 20:53 | 11.15314 | -60.88005 | 762 ft | 143 kts | 95° |
| 2026-04-26 20:53 | 11.15245 | -60.87024 | 583 ft | 139 kts | 97° |
| 2026-04-26 20:53 | 11.15190 | -60.86059 | 362 ft | 135 kts | 96° |
| 2026-04-26 20:54 | 11.15121 | -60.85099 | 212 ft | 135 kts | 95° |
| 2026-04-26 20:54 | 11.15039 | -60.84167 | 70 ft | 137 kts | 97° |
| 2026-04-26 20:54 | 11.14967 | -60.83209 | 48 ft | 125 kts | 88° |
| 2026-04-26 20:54 | 11.14931 | -60.82628 | 41 ft | 39 kts | 92° |
| 2026-04-26 20:55 | 11.14922 | -60.82441 | 40 ft | 16 kts | 90° |
| 2026-04-26 20:55 | 11.14901 | -60.82410 | 40 ft | 4 kts | 159° |
| 2026-04-26 20:55 | 11.14884 | -60.82427 | 40 ft | 3 kts | 233° |
| 2026-04-26 20:55 | 11.14898 | -60.82469 | 40 ft | 11 kts | 293° |
| 2026-04-26 20:56 | 11.14923 | -60.82585 | 41 ft | 21 kts | 273° |
| 2026-04-26 20:56 | 11.14933 | -60.82747 | 38 ft | 25 kts | 274° |
| 2026-04-26 20:56 | 11.14947 | -60.82948 | 38 ft | 32 kts | 274° |
| 2026-04-26 20:56 | 11.14965 | -60.83197 | 44 ft | 38 kts | 275° |
| 2026-04-26 20:57 | 11.14983 | -60.83418 | 40 ft | 21 kts | 272° |
| 2026-04-26 20:57 | 11.14995 | -60.83601 | 41 ft | 31 kts | 274° |
| 2026-04-26 20:57 | 11.15032 | -60.83822 | 33 ft | 26 kts | 316° |
| 2026-04-26 20:57 | 11.15104 | -60.83887 | 40 ft | 16 kts | 288° |
| 2026-04-26 20:58 | 11.15117 | -60.83984 | 40 ft | 10 kts | 274° |
| 2026-04-26 20:58 | 11.15124 | -60.84000 | 39 ft | 2 kts | 301° |
| 2026-04-26 20:58 | 11.15148 | -60.84004 | 41 ft | 5 kts | 346° |
| 2026-04-26 20:58 | 11.15176 | -60.84004 | 41 ft | 1 kts | 3° |
| 2026-04-26 20:59 | 11.15187 | -60.84004 | 41 ft | 2 kts | 4° |
| 2026-04-26 20:59 | 11.15188 | -60.84004 | 41 ft | 0 kts | 4° |